Terminal Aerodrome Forecast
Issued by NWS

Current Version | Previous Version | Text Only | Print | Product List | Glossary On
Versions: 1 2 3 4 5 6 7 8 9 10 11 12 13 14
759
FTUS42 KGSP 241406 AAA
TAFAND
TAF AMD
KAND 241406Z 2414/2512 VRB04KT 5SM -RA BR SCT024 BKN035
     FM241530 13004KT P6SM SCT025 BKN035
     FM241800 17004KT P6SM BKN045
     FM242300 11004KT P6SM BKN050
     FM250000 10003KT P6SM SCT050=

USA.gov is the U.S. government's official web portal to all federal, state and local government web resources and services.